LDPL Informações do Aeroporto

Informações da Pista
Pista 09 Comprimento 9678 ft Largura 148 ft
Elevação 169 ft Limite 0 ft Heading 88
Pista 27 Comprimento 9678 ft Largura 148 ft
Elevação 274 ft Limite 0 ft Heading 268
Frequências do Aeroporto
Tipo APP Nome APP Frequência 118.4 MHZ
Tipo TWR Nome TWR Frequência 120 MHZ
Navaids do Aeroporto
Tipo NDB Nome Cres Frequência 433 KHZ
Tipo NDB Nome Kavran Frequência 265 KHZ
Tipo NDB Nome Pula Frequência 352 KHZ
Tipo VOR-DME Nome Pula Frequência 111250 KHZ
Informações meteorológicas do aeroporto e NOTAM
ADDS - METARS form results

(1448 UTC 21 April 2019)
Data provider http://aviationweather.gov/metar/data/
 
METAR text: LDPL 211430Z VRB05KT CAVOK 19/03 Q1020 NOSIG
Conditions at: LDPL (PULA , HR) observed 1430 UTC 21 April 2019
Temperature: 19.0°C (66°F)
Dewpoint: 3.0°C (37°F) [RH = 34%]
Pressure (altimeter): 30.12 inches Hg (1020.0 mb)
Winds: variable direction winds at 6 MPH (5 knots; 2.6 m/s)
Visibility: 6 or more miles (10+ km)
Ceiling: ceiling and visibility are OK
Clouds: unknown
Weather: no significant weather observed at this time

METAR text: LDPL 211400Z 18006KT 140V240 CAVOK 19/02 Q1020 NOSIG
Conditions at: LDPL (PULA , HR) observed 1400 UTC 21 April 2019
Temperature: 19.0°C (66°F)
Dewpoint: 2.0°C (36°F) [RH = 32%]
Pressure (altimeter): 30.12 inches Hg (1020.0 mb)
Winds: from the S (180 degrees) at 7 MPH (6 knots; 3.1 m/s)
Visibility: 6 or more miles (10+ km)
Ceiling: ceiling and visibility are OK
Clouds: unknown
Weather: no significant weather observed at this time

Forecast for: LDPL (PULA , HR)
Text: TAF LDPL 211125Z 2112/2212 09006KT CAVOK TX22/2112Z TN10/2203Z
Forecast period: 1200 UTC 21 April 2019 to 1000 UTC 22 April 2019
Forecast type: FROM: standard forecast or significant change
Winds: from the E (90 degrees) at 7 MPH (6 knots; 3.1 m/s)
Visibility: 6 or more miles 10+ km)
Ceiling: unknown
Clouds: missing
Weather: no significant weather forecast for this period
Text: BECMG 2210/2212 14012KT
Forecast period: 1000 to 1200 UTC 22 April 2019
Forecast type: BECOMING: Conditions expected to become as follows by 1200 UTC 22 April 2019
Winds: from the SE (140 degrees) at 14 MPH (12 knots; 6.2 m/s)
Visibility: 6 or more miles 10+ km)
Ceiling: unknown
Clouds: missing
Weather: no significant weather forecast for this period